»·PEaware :: N2604M KSBP-KSMX

N2604M :: KSBP-KSMX

FLIGHT INFORMATION

Flight Status: Arrived
Operator: Privately registered:
United States
More flights under this callsign
Pilot: Magnus A. (27892)
Aircraft: CESSNA 172 SKYHAWK
(C172)
More flights by this aircraft type
Origin: KSBP San Luis Co Regl
United States
Destination: KSMX Santa Maria Pub/Capt Hancock
United States
More flights between these airports :: More routes between these airports
Route: DIRECT
File this flight plan on PilotEdge
Remarks: Retry CAT-4 rating
Altitude:
(Current/Filed)
3,500ft
Speed:
(Current/Filed)
120kts
Departed: 07-Feb-20 06:31 PM
Arrived: 07-Feb-20 06:50 PM
Distance/Time
Traveled:
22nm/0:19
Distance/Time
To Go:
Arrived

Flight Plot

Page will automatically refresh every two minutes.


Map Options




Map Legend


Flown Route
Filed Route
Departure Airport
Arrival Airport
Navaid (VOR, NDB)
Fix

Horizontal Profiles

Position Reports

Time Latitude Longitude Heading Altitude Ground
Speed
07-Feb-20 18:12 35.238574 -120.640007 227 216ft 0kts
07-Feb-20 18:13 35.238574 -120.640007 227 216ft 0kts
07-Feb-20 18:14 35.238574 -120.640007 227 216ft 0kts
07-Feb-20 18:15 35.238574 -120.640007 227 216ft 0kts
07-Feb-20 18:16 35.238574 -120.640007 227 216ft 0kts
07-Feb-20 18:17 35.238574 -120.640007 227 216ft 0kts
07-Feb-20 18:18 35.238574 -120.640007 227 216ft 0kts
07-Feb-20 18:19 35.238574 -120.640007 227 216ft 0kts
07-Feb-20 18:20 35.238574 -120.640007 227 216ft 0kts
07-Feb-20 18:21 35.238574 -120.640007 227 216ft 0kts
07-Feb-20 18:22 35.238574 -120.640007 227 216ft 0kts
07-Feb-20 18:23 35.238574 -120.640007 227 216ft 0kts
07-Feb-20 18:24 35.238574 -120.640007 227 216ft 0kts
07-Feb-20 18:25 35.238563 -120.640021 226 216ft 1kts
07-Feb-20 18:26 35.237193 -120.638864 125 216ft 16kts
07-Feb-20 18:27 35.233973 -120.633224 124 216ft 21kts
07-Feb-20 18:28 35.233164 -120.632387 198 216ft 0kts
07-Feb-20 18:29 35.233164 -120.632387 198 216ft 0kts
07-Feb-20 18:30 35.234417 -120.635918 305 216ft 67kts
07-Feb-20 18:31 35.237582 -120.655326 216 1042ft 93kts
07-Feb-20 18:32 35.217651 -120.635646 126 1625ft 112kts
07-Feb-20 18:33 35.184995 -120.634563 188 1768ft 116kts
07-Feb-20 18:34 35.154329 -120.627568 160 1974ft 114kts
07-Feb-20 18:35 35.124005 -120.616703 171 2126ft 115kts
07-Feb-20 18:36 35.093767 -120.604560 163 2274ft 116kts
07-Feb-20 18:37 35.062860 -120.593262 169 2381ft 117kts
07-Feb-20 18:38 35.031390 -120.584956 165 2460ft 119kts
07-Feb-20 18:39 34.999662 -120.576559 171 2530ft 118kts
07-Feb-20 18:40 34.968566 -120.565094 157 2547ft 120kts
07-Feb-20 18:41 34.937793 -120.550269 157 2282ft 122kts
07-Feb-20 18:42 34.908975 -120.531103 156 1771ft 119kts
07-Feb-20 18:43 34.891102 -120.502748 90 1186ft 111kts
07-Feb-20 18:44 34.895954 -120.468195 64 761ft 108kts
07-Feb-20 18:45 34.907965 -120.442849 105 841ft 99kts
07-Feb-20 18:46 34.884589 -120.429102 209 896ft 114kts
07-Feb-20 18:47 34.882193 -120.437440 4 714ft 101kts
07-Feb-20 18:48 34.898020 -120.452169 316 320ft 51kts
07-Feb-20 18:49 34.902732 -120.457059 328 265ft 4kts
07-Feb-20 18:50 34.903629 -120.456329 127 265ft 4kts
07-Feb-20 18:51 34.902862 -120.454741 351 265ft 2kts
07-Feb-20 18:52 34.903161 -120.454965 320 265ft 0kts
07-Feb-20 18:53 34.903161 -120.454965 320 265ft 0kts
07-Feb-20 18:54 34.903161 -120.454965 320 265ft 0kts
07-Feb-20 18:55 34.903161 -120.454965 320 265ft 0kts
07-Feb-20 18:56 34.903161 -120.454965 320 265ft 0kts
07-Feb-20 18:57 34.903161 -120.454965 320 265ft 0kts
07-Feb-20 18:58 34.903161 -120.454965 320 265ft 0kts
07-Feb-20 18:59 34.903161 -120.454965 320 265ft 0kts
07-Feb-20 19:00 34.903161 -120.454965 320 265ft 0kts
07-Feb-20 19:01 34.903161 -120.454965 320 265ft 0kts
07-Feb-20 19:02 34.903161 -120.454965 320 265ft 0kts
07-Feb-20 19:03 34.903161 -120.454965 320 265ft 0kts

Navigation Log

Ident Type
Flight plan parsing failed, navigation log unavailable